createdAt,value
2022-10-06T00:04:29.186Z,10.51
2022-10-06T00:09:32.209Z,10.62
2022-10-06T00:14:36.657Z,10.66
2022-10-06T00:19:39.705Z,10.63
2022-10-06T00:24:42.694Z,10.57
2022-10-06T00:29:46.206Z,10.48
2022-10-06T00:34:49.196Z,10.44
2022-10-06T00:39:52.666Z,10.38
2022-10-06T00:45:00.493Z,10.40
2022-10-06T00:50:04.543Z,10.41
2022-10-06T00:55:11.984Z,10.23
2022-10-06T01:00:15.669Z,10.34
2022-10-06T01:05:28.037Z,10.22
2022-10-06T01:10:31.773Z,10.19
2022-10-06T01:15:35.119Z,10.27
2022-10-06T01:20:39.382Z,10.29
2022-10-06T01:25:43.710Z,10.19
2022-10-06T01:30:53.166Z,10.36
2022-10-06T01:35:58.899Z,10.35
2022-10-06T01:41:03.105Z,10.51
2022-10-06T01:46:06.842Z,10.40
2022-10-06T01:51:18.712Z,10.41
2022-10-06T01:56:23.285Z,10.19
2022-10-06T02:01:27.820Z,10.18
2022-10-06T02:06:31.635Z,10.16
2022-10-06T02:11:35.576Z,10.10
2022-10-06T02:16:41.253Z,9.87
2022-10-06T02:21:44.939Z,9.77
2022-10-06T02:26:48.941Z,9.60
2022-10-06T02:31:52.530Z,9.53
2022-10-06T02:36:57.029Z,9.58
2022-10-06T02:42:00.973Z,9.66
2022-10-06T02:47:04.053Z,9.60
2022-10-06T02:52:07.489Z,9.39
2022-10-06T02:57:11.170Z,9.18
2022-10-06T03:02:14.946Z,8.89
2022-10-06T03:07:19.034Z,8.83
2022-10-06T03:12:23.444Z,8.44
2022-10-06T03:17:26.538Z,8.53
2022-10-06T03:22:32.918Z,8.27
2022-10-06T03:27:37.116Z,8.30
2022-10-06T03:32:42.521Z,8.17
2022-10-06T03:37:47.360Z,7.96
2022-10-06T03:42:51.810Z,8.10
2022-10-06T03:47:56.759Z,8.02
2022-10-06T03:53:01.635Z,7.94
2022-10-06T03:58:06.393Z,7.71
2022-10-06T04:03:10.231Z,7.70
2022-10-06T04:08:15.747Z,7.63
2022-10-06T04:13:22.803Z,7.59
2022-10-06T04:18:26.765Z,7.52
2022-10-06T04:23:30.671Z,7.42
2022-10-06T04:28:34.904Z,7.18
2022-10-06T04:33:38.691Z,7.35
2022-10-06T04:38:42.132Z,7.52
2022-10-06T04:43:47.593Z,7.25
2022-10-06T04:48:52.687Z,7.20
2022-10-06T04:53:57.129Z,7.16
2022-10-06T04:59:01.877Z,7.09
2022-10-06T05:04:07.901Z,6.89
2022-10-06T05:09:16.109Z,6.85
2022-10-06T05:14:31.558Z,6.90
2022-10-06T05:19:34.825Z,6.94
2022-10-06T05:24:39.016Z,7.10
2022-10-06T05:29:42.500Z,7.13
2022-10-06T05:34:46.067Z,7.34
2022-10-06T05:39:49.668Z,7.72
2022-10-06T05:44:52.880Z,8.05
2022-10-06T05:49:56.669Z,8.48
2022-10-06T05:55:00.753Z,8.91
2022-10-06T06:00:05.201Z,9.55
2022-10-06T06:05:16.176Z,10.16
2022-10-06T06:10:19.735Z,14.47
2022-10-06T06:15:42.310Z,19.47
2022-10-06T06:20:45.503Z,22.40
2022-10-06T06:26:02.673Z,23.89
2022-10-06T06:31:14.120Z,24.35
2022-10-06T06:36:26.148Z,24.84
2022-10-06T06:41:33.413Z,24.20
2022-10-06T06:46:45.102Z,23.87
2022-10-06T06:51:53.088Z,24.27
2022-10-06T06:56:59.058Z,24.84
2022-10-06T07:02:03.714Z,25.26
2022-10-06T07:07:11.871Z,25.42
2022-10-06T07:12:16.091Z,26.91
2022-10-06T07:17:43.599Z,24.50
2022-10-06T07:23:06.925Z,23.47
2022-10-06T07:28:12.717Z,25.54
2022-10-06T07:33:18.404Z,24.11
2022-10-06T07:38:26.269Z,25.54
2022-10-06T07:43:31.486Z,27.27
2022-10-06T07:48:38.292Z,26.63
2022-10-06T07:53:41.515Z,28.12
2022-10-06T07:58:51.768Z,26.44
2022-10-06T08:03:54.965Z,26.14
2022-10-06T08:08:58.146Z,26.00
2022-10-06T08:14:01.731Z,22.61
2022-10-06T08:19:05.558Z,20.99
2022-10-06T08:24:10.100Z,22.28
2022-10-06T08:29:13.074Z,21.19
2022-10-06T08:34:16.767Z,22.00
2022-10-06T08:39:20.851Z,23.67
2022-10-06T08:44:38.676Z,24.64
2022-10-06T08:49:46.169Z,24.50
2022-10-06T08:55:07.089Z,22.16
2022-10-06T09:00:21.123Z,22.03
2022-10-06T09:05:28.706Z,21.19
2022-10-06T09:10:49.975Z,22.56
2022-10-06T09:16:14.222Z,23.28
2022-10-06T09:21:20.237Z,22.90
2022-10-06T09:26:32.980Z,20.85
2022-10-06T09:31:42.793Z,20.74
2022-10-06T09:37:09.384Z,20.53
2022-10-06T09:42:21.625Z,20.73
2022-10-06T09:47:32.208Z,20.51
2022-10-06T09:52:36.027Z,20.12
2022-10-06T09:57:48.165Z,19.91
2022-10-06T10:02:58.277Z,19.96
2022-10-06T10:08:31.077Z,20.29
2022-10-06T10:13:44.370Z,20.84
2022-10-06T10:18:51.243Z,21.13
2022-10-06T10:24:01.001Z,21.03
2022-10-06T10:29:34.421Z,22.49
2022-10-06T10:35:03.643Z,21.87
2022-10-06T10:40:30.274Z,21.08
2022-10-06T10:45:36.019Z,21.28
2022-10-06T10:50:54.882Z,21.46
2022-10-06T10:55:58.324Z,20.80
2022-10-06T11:01:17.093Z,20.41
2022-10-06T11:07:00.860Z,20.13
2022-10-06T11:12:25.337Z,19.59
2022-10-06T11:17:45.153Z,19.61
2022-10-06T11:23:30.224Z,19.34
2022-10-06T11:28:50.339Z,19.08
2022-10-06T11:34:01.277Z,19.21
2022-10-06T11:39:30.328Z,19.74
2022-10-06T11:44:47.942Z,18.94
2022-10-06T11:49:56.304Z,18.39
2022-10-06T11:55:22.328Z,19.50
2022-10-06T12:00:28.598Z,19.31
2022-10-06T12:10:55.588Z,19.71
2022-10-06T12:21:50.673Z,19.69
2022-10-06T12:26:59.984Z,19.57
2022-10-06T12:32:34.024Z,19.15
2022-10-06T12:37:44.592Z,19.48
2022-10-06T12:42:48.259Z,20.16
2022-10-06T12:47:51.930Z,19.51
2022-10-06T12:53:14.724Z,19.15
2022-10-06T12:58:32.618Z,19.48
2022-10-06T13:03:37.090Z,19.38
2022-10-06T13:08:40.533Z,19.18
2022-10-06T13:13:58.794Z,19.55
2022-10-06T13:19:02.406Z,19.50
2022-10-06T13:24:06.195Z,19.01
2022-10-06T13:29:25.881Z,19.18
2022-10-06T13:34:43.602Z,18.81
2022-10-06T13:39:46.969Z,18.65
2022-10-06T13:45:01.179Z,18.82
2022-10-06T13:50:18.790Z,19.40
2022-10-06T13:55:25.722Z,19.86
2022-10-06T14:00:49.260Z,19.20
2022-10-06T14:06:08.800Z,19.14
2022-10-06T14:11:12.273Z,19.20
2022-10-06T14:16:24.353Z,18.90
2022-10-06T14:21:37.153Z,18.93
2022-10-06T14:26:40.918Z,18.86
2022-10-06T14:31:48.154Z,18.87
2022-10-06T14:36:52.502Z,18.64
2022-10-06T14:41:56.155Z,18.51
2022-10-06T14:46:59.187Z,18.66
2022-10-06T14:52:02.548Z,18.73
2022-10-06T14:57:06.446Z,18.71
2022-10-06T15:02:11.745Z,18.81
2022-10-06T15:07:36.130Z,18.63
2022-10-06T15:12:40.616Z,18.51
2022-10-06T15:17:43.700Z,18.35
2022-10-06T15:22:46.739Z,18.26
2022-10-06T15:28:08.129Z,18.97
2022-10-06T15:33:11.592Z,19.77
2022-10-06T15:38:15.100Z,19.67
2022-10-06T15:43:38.081Z,19.76
2022-10-06T15:48:43.307Z,19.37
2022-10-06T15:53:46.986Z,19.06
2022-10-06T15:58:50.241Z,18.51
2022-10-06T16:03:53.945Z,18.00
2022-10-06T16:08:57.981Z,17.60
2022-10-06T16:14:01.201Z,17.09
2022-10-06T16:19:05.039Z,16.71
2022-10-06T16:24:08.329Z,16.33
2022-10-06T16:29:12.629Z,15.96
2022-10-06T16:34:17.024Z,15.50
2022-10-06T16:39:22.617Z,15.16
2022-10-06T16:44:26.810Z,14.74
2022-10-06T16:49:30.638Z,14.42
2022-10-06T16:54:34.734Z,14.15
2022-10-06T16:59:39.546Z,13.97
2022-10-06T17:04:45.603Z,13.78
2022-10-06T17:10:15.365Z,13.67
2022-10-06T17:15:18.578Z,13.34
2022-10-06T17:20:24.602Z,13.17
2022-10-06T17:25:27.623Z,13.04
2022-10-06T17:30:31.014Z,12.90
2022-10-06T17:35:38.219Z,12.84
2022-10-06T17:40:45.233Z,12.71
2022-10-06T17:45:49.764Z,12.54
2022-10-06T17:51:00.644Z,12.63
2022-10-06T17:56:08.783Z,12.58
2022-10-06T18:01:19.715Z,12.58
2022-10-06T18:06:27.219Z,12.55
2022-10-06T18:11:43.476Z,12.40
2022-10-06T18:16:52.079Z,12.18
2022-10-06T18:22:10.855Z,11.96
2022-10-06T18:27:15.349Z,11.88
2022-10-06T18:37:42.362Z,11.73
2022-10-06T18:42:47.900Z,11.64
2022-10-06T18:48:10.763Z,11.65
2022-10-06T18:53:13.984Z,11.56
2022-10-06T18:58:19.698Z,11.51
2022-10-06T19:03:23.346Z,11.22
2022-10-06T19:08:27.799Z,11.49
2022-10-06T19:13:31.338Z,11.54
2022-10-06T19:18:39.145Z,11.62
2022-10-06T19:23:43.412Z,11.76
2022-10-06T19:28:47.292Z,11.76
2022-10-06T19:33:50.811Z,11.73
2022-10-06T19:38:57.248Z,11.71
2022-10-06T19:44:03.320Z,11.62
2022-10-06T19:49:08.524Z,11.58
2022-10-06T19:54:13.459Z,11.50
2022-10-06T19:59:21.657Z,11.42
2022-10-06T20:04:26.050Z,11.23
2022-10-06T20:09:32.725Z,11.21
2022-10-06T20:14:36.672Z,11.10
2022-10-06T20:19:40.509Z,11.16
2022-10-06T20:24:43.541Z,11.26
2022-10-06T20:29:47.212Z,11.22
2022-10-06T20:34:51.027Z,11.27
2022-10-06T20:40:12.783Z,11.34
2022-10-06T20:45:16.546Z,11.33
2022-10-06T20:50:20.595Z,11.26
2022-10-06T20:55:25.174Z,11.10
2022-10-06T21:00:28.981Z,11.07
2022-10-06T21:05:34.030Z,11.03
2022-10-06T21:10:37.094Z,10.98
2022-10-06T21:15:45.941Z,10.86
2022-10-06T21:21:07.871Z,10.78
2022-10-06T21:26:14.553Z,10.74
2022-10-06T21:31:19.328Z,10.69
2022-10-06T21:36:27.290Z,10.54
2022-10-06T21:41:36.332Z,10.49
2022-10-06T21:46:48.411Z,10.50
2022-10-06T21:51:54.638Z,10.48
2022-10-06T21:56:58.305Z,10.46
2022-10-06T22:02:03.178Z,10.30
2022-10-06T22:07:06.604Z,10.15
2022-10-06T22:12:10.552Z,10.08
2022-10-06T22:17:14.251Z,9.91
2022-10-06T22:22:18.050Z,9.82
2022-10-06T22:27:21.065Z,9.72
2022-10-06T22:32:25.065Z,9.56
2022-10-06T22:37:28.157Z,9.54
2022-10-06T22:42:31.858Z,9.43
2022-10-06T22:47:35.778Z,9.33
2022-10-06T22:52:39.318Z,9.36
2022-10-06T22:57:43.700Z,9.27
2022-10-06T23:02:47.291Z,9.37
2022-10-06T23:07:51.722Z,9.34
2022-10-06T23:12:56.300Z,9.28
2022-10-06T23:17:59.980Z,9.32
2022-10-06T23:23:03.712Z,9.30
2022-10-06T23:28:06.815Z,9.17
2022-10-06T23:33:09.825Z,9.24
2022-10-06T23:38:12.850Z,9.17
2022-10-06T23:43:16.913Z,9.12
2022-10-06T23:48:20.200Z,9.04
2022-10-06T23:53:23.692Z,9.05
2022-10-06T23:58:38.840Z,8.92
